sensor_id;sensor_type;location;lat;lon;timestamp;P1;durP1;ratioP1;P2;durP2;ratioP2
37237;SDS011;23129;49.662;8.448;2023-03-16T00:00:06;9.98;;;5.72;;
37237;SDS011;23129;49.662;8.448;2023-03-16T00:02:39;17.50;;;4.97;;
37237;SDS011;23129;49.662;8.448;2023-03-16T00:05:10;11.05;;;6.47;;
37237;SDS011;23129;49.662;8.448;2023-03-16T00:07:40;11.65;;;6.78;;
37237;SDS011;23129;49.662;8.448;2023-03-16T00:10:09;11.43;;;6.47;;
37237;SDS011;23129;49.662;8.448;2023-03-16T00:12:39;13.65;;;5.40;;
37237;SDS011;23129;49.662;8.448;2023-03-16T00:15:09;16.27;;;6.43;;
37237;SDS011;23129;49.662;8.448;2023-03-16T00:17:37;10.57;;;5.97;;
37237;SDS011;23129;49.662;8.448;2023-03-16T00:20:06;11.55;;;5.72;;
37237;SDS011;23129;49.662;8.448;2023-03-16T00:22:38;10.98;;;6.40;;
37237;SDS011;23129;49.662;8.448;2023-03-16T00:25:07;12.55;;;6.05;;
37237;SDS011;23129;49.662;8.448;2023-03-16T00:27:37;9.25;;;6.28;;
37237;SDS011;23129;49.662;8.448;2023-03-16T00:30:07;10.63;;;6.00;;
37237;SDS011;23129;49.662;8.448;2023-03-16T00:32:37;17.50;;;7.93;;
37237;SDS011;23129;49.662;8.448;2023-03-16T00:35:07;12.40;;;7.13;;
37237;SDS011;23129;49.662;8.448;2023-03-16T00:37:36;11.63;;;7.15;;
37237;SDS011;23129;49.662;8.448;2023-03-16T00:40:08;9.57;;;5.85;;
37237;SDS011;23129;49.662;8.448;2023-03-16T00:42:39;13.15;;;6.97;;
37237;SDS011;23129;49.662;8.448;2023-03-16T00:45:08;9.20;;;5.63;;
37237;SDS011;23129;49.662;8.448;2023-03-16T00:47:37;8.18;;;5.32;;
37237;SDS011;23129;49.662;8.448;2023-03-16T00:50:07;9.77;;;5.93;;
37237;SDS011;23129;49.662;8.448;2023-03-16T00:52:37;9.35;;;5.43;;
37237;SDS011;23129;49.662;8.448;2023-03-16T00:55:07;12.82;;;5.32;;
37237;SDS011;23129;49.662;8.448;2023-03-16T00:57:37;9.68;;;6.78;;
37237;SDS011;23129;49.662;8.448;2023-03-16T01:00:06;11.30;;;5.97;;
37237;SDS011;23129;49.662;8.448;2023-03-16T01:02:38;9.15;;;5.38;;
37237;SDS011;23129;49.662;8.448;2023-03-16T01:05:07;9.75;;;5.55;;
37237;SDS011;23129;49.662;8.448;2023-03-16T01:07:36;11.82;;;5.72;;
37237;SDS011;23129;49.662;8.448;2023-03-16T01:10:08;8.60;;;4.97;;
37237;SDS011;23129;49.662;8.448;2023-03-16T01:12:38;7.43;;;4.80;;
37237;SDS011;23129;49.662;8.448;2023-03-16T01:15:08;4.90;;;4.20;;
37237;SDS011;23129;49.662;8.448;2023-03-16T01:17:37;11.23;;;5.55;;
37237;SDS011;23129;49.662;8.448;2023-03-16T01:20:07;10.93;;;5.90;;
37237;SDS011;23129;49.662;8.448;2023-03-16T01:22:41;11.32;;;5.55;;
37237;SDS011;23129;49.662;8.448;2023-03-16T01:25:09;11.63;;;5.63;;
37237;SDS011;23129;49.662;8.448;2023-03-16T01:27:40;8.13;;;4.75;;
37237;SDS011;23129;49.662;8.448;2023-03-16T01:30:09;7.25;;;4.95;;
37237;SDS011;23129;49.662;8.448;2023-03-16T01:32:38;11.15;;;4.95;;
37237;SDS011;23129;49.662;8.448;2023-03-16T01:35:10;7.47;;;4.60;;
37237;SDS011;23129;49.662;8.448;2023-03-16T01:37:41;7.22;;;4.88;;
37237;SDS011;23129;49.662;8.448;2023-03-16T01:40:13;8.60;;;5.20;;
37237;SDS011;23129;49.662;8.448;2023-03-16T01:42:45;8.40;;;5.20;;
37237;SDS011;23129;49.662;8.448;2023-03-16T01:48:44;5.30;;;4.43;;
37237;SDS011;23129;49.662;8.448;2023-03-16T01:51:26;10.23;;;5.40;;
37237;SDS011;23129;49.662;8.448;2023-03-16T01:54:00;10.00;;;5.47;;
37237;SDS011;23129;49.662;8.448;2023-03-16T01:56:35;7.95;;;5.30;;
37237;SDS011;23129;49.662;8.448;2023-03-16T01:59:09;8.23;;;5.47;;
37237;SDS011;23129;49.662;8.448;2023-03-16T02:01:43;5.63;;;4.78;;
37237;SDS011;23129;49.662;8.448;2023-03-16T02:04:20;9.18;;;5.82;;
37237;SDS011;23129;49.662;8.448;2023-03-16T02:07:00;7.10;;;5.15;;
37237;SDS011;23129;49.662;8.448;2023-03-16T02:09:32;7.72;;;4.97;;
37237;SDS011;23129;49.662;8.448;2023-03-16T02:12:03;10.27;;;5.50;;
37237;SDS011;23129;49.662;8.448;2023-03-16T02:14:38;7.40;;;5.03;;
37237;SDS011;23129;49.662;8.448;2023-03-16T02:17:07;10.65;;;6.03;;
37237;SDS011;23129;49.662;8.448;2023-03-16T02:19:37;9.50;;;5.45;;
37237;SDS011;23129;49.662;8.448;2023-03-16T02:22:15;7.15;;;5.00;;
37237;SDS011;23129;49.662;8.448;2023-03-16T02:24:46;6.78;;;5.07;;
37237;SDS011;23129;49.662;8.448;2023-03-16T02:27:15;9.52;;;5.68;;
37237;SDS011;23129;49.662;8.448;2023-03-16T02:29:58;9.18;;;5.03;;
37237;SDS011;23129;49.662;8.448;2023-03-16T02:32:37;10.68;;;5.80;;
37237;SDS011;23129;49.662;8.448;2023-03-16T02:35:07;11.80;;;7.18;;
37237;SDS011;23129;49.662;8.448;2023-03-16T02:37:38;8.50;;;5.07;;
37237;SDS011;23129;49.662;8.448;2023-03-16T02:40:16;8.63;;;5.63;;
37237;SDS011;23129;49.662;8.448;2023-03-16T02:42:53;12.50;;;5.72;;
37237;SDS011;23129;49.662;8.448;2023-03-16T02:45:31;8.23;;;4.95;;
37237;SDS011;23129;49.662;8.448;2023-03-16T02:48:08;8.07;;;4.75;;
37237;SDS011;23129;49.662;8.448;2023-03-16T02:50:44;11.65;;;5.65;;
37237;SDS011;23129;49.662;8.448;2023-03-16T02:53:14;4.50;;;3.80;;
37237;SDS011;23129;49.662;8.448;2023-03-16T02:55:43;12.52;;;5.75;;
37237;SDS011;23129;49.662;8.448;2023-03-16T02:58:12;10.40;;;6.25;;
37237;SDS011;23129;49.662;8.448;2023-03-16T03:00:42;21.38;;;6.20;;
37237;SDS011;23129;49.662;8.448;2023-03-16T03:03:14;9.48;;;5.53;;
37237;SDS011;23129;49.662;8.448;2023-03-16T03:05:42;9.85;;;5.38;;
37237;SDS011;23129;49.662;8.448;2023-03-16T03:08:11;10.30;;;5.32;;
37237;SDS011;23129;49.662;8.448;2023-03-16T03:10:40;12.05;;;6.57;;
37237;SDS011;23129;49.662;8.448;2023-03-16T03:13:08;9.75;;;5.03;;
37237;SDS011;23129;49.662;8.448;2023-03-16T03:15:38;15.02;;;6.30;;
37237;SDS011;23129;49.662;8.448;2023-03-16T03:18:10;9.93;;;5.63;;
37237;SDS011;23129;49.662;8.448;2023-03-16T03:20:40;8.63;;;4.95;;
37237;SDS011;23129;49.662;8.448;2023-03-16T03:23:08;7.43;;;5.93;;
37237;SDS011;23129;49.662;8.448;2023-03-16T03:25:39;10.05;;;5.55;;
37237;SDS011;23129;49.662;8.448;2023-03-16T03:28:08;11.77;;;5.85;;
37237;SDS011;23129;49.662;8.448;2023-03-16T03:30:37;10.20;;;5.28;;
37237;SDS011;23129;49.662;8.448;2023-03-16T03:33:06;10.25;;;5.25;;
37237;SDS011;23129;49.662;8.448;2023-03-16T03:35:36;9.75;;;5.95;;
37237;SDS011;23129;49.662;8.448;2023-03-16T03:38:05;6.32;;;4.65;;
37237;SDS011;23129;49.662;8.448;2023-03-16T03:40:34;7.72;;;5.10;;
37237;SDS011;23129;49.662;8.448;2023-03-16T03:43:03;6.10;;;3.88;;
37237;SDS011;23129;49.662;8.448;2023-03-16T03:45:36;7.70;;;5.57;;
37237;SDS011;23129;49.662;8.448;2023-03-16T03:48:05;11.85;;;5.07;;
37237;SDS011;23129;49.662;8.448;2023-03-16T03:50:33;11.10;;;6.03;;
37237;SDS011;23129;49.662;8.448;2023-03-16T03:53:27;8.80;;;5.43;;
37237;SDS011;23129;49.662;8.448;2023-03-16T03:56:15;7.40;;;5.35;;
37237;SDS011;23129;49.662;8.448;2023-03-16T03:58:43;9.65;;;5.40;;
37237;SDS011;23129;49.662;8.448;2023-03-16T04:01:18;11.20;;;5.93;;
37237;SDS011;23129;49.662;8.448;2023-03-16T04:03:46;8.80;;;4.93;;
37237;SDS011;23129;49.662;8.448;2023-03-16T04:06:15;10.18;;;5.40;;
37237;SDS011;23129;49.662;8.448;2023-03-16T04:08:45;9.13;;;5.28;;
37237;SDS011;23129;49.662;8.448;2023-03-16T04:11:17;8.07;;;5.80;;
37237;SDS011;23129;49.662;8.448;2023-03-16T04:13:46;9.00;;;5.95;;
37237;SDS011;23129;49.662;8.448;2023-03-16T04:16:17;10.90;;;6.38;;
37237;SDS011;23129;49.662;8.448;2023-03-16T04:18:48;19.48;;;6.40;;
37237;SDS011;23129;49.662;8.448;2023-03-16T04:21:17;8.32;;;5.60;;
37237;SDS011;23129;49.662;8.448;2023-03-16T04:23:47;9.82;;;5.97;;
37237;SDS011;23129;49.662;8.448;2023-03-16T04:26:22;8.05;;;5.45;;
37237;SDS011;23129;49.662;8.448;2023-03-16T04:28:52;8.07;;;6.00;;
37237;SDS011;23129;49.662;8.448;2023-03-16T04:31:21;11.00;;;5.72;;
37237;SDS011;23129;49.662;8.448;2023-03-16T04:33:50;8.65;;;4.88;;
37237;SDS011;23129;49.662;8.448;2023-03-16T04:36:21;9.13;;;5.80;;
37237;SDS011;23129;49.662;8.448;2023-03-16T04:38:52;13.05;;;5.63;;
37237;SDS011;23129;49.662;8.448;2023-03-16T04:41:21;11.40;;;6.70;;
37237;SDS011;23129;49.662;8.448;2023-03-16T04:43:58;11.60;;;6.88;;
37237;SDS011;23129;49.662;8.448;2023-03-16T04:46:27;8.20;;;6.10;;
37237;SDS011;23129;49.662;8.448;2023-03-16T04:48:58;8.50;;;5.35;;
37237;SDS011;23129;49.662;8.448;2023-03-16T04:51:27;10.38;;;6.22;;
37237;SDS011;23129;49.662;8.448;2023-03-16T04:54:04;17.67;;;7.00;;
37237;SDS011;23129;49.662;8.448;2023-03-16T04:56:36;10.65;;;6.68;;
37237;SDS011;23129;49.662;8.448;2023-03-16T04:59:13;11.68;;;6.90;;
37237;SDS011;23129;49.662;8.448;2023-03-16T05:01:57;7.10;;;4.88;;
37237;SDS011;23129;49.662;8.448;2023-03-16T05:04:26;8.07;;;5.18;;
37237;SDS011;23129;49.662;8.448;2023-03-16T05:06:54;10.32;;;5.72;;
37237;SDS011;23129;49.662;8.448;2023-03-16T05:09:28;9.02;;;5.25;;
37237;SDS011;23129;49.662;8.448;2023-03-16T05:11:57;9.07;;;6.18;;
37237;SDS011;23129;49.662;8.448;2023-03-16T05:14:26;8.10;;;5.20;;
37237;SDS011;23129;49.662;8.448;2023-03-16T05:17:10;8.23;;;5.17;;
37237;SDS011;23129;49.662;8.448;2023-03-16T05:19:41;7.60;;;5.32;;
37237;SDS011;23129;49.662;8.448;2023-03-16T05:22:10;11.25;;;5.25;;
37237;SDS011;23129;49.662;8.448;2023-03-16T05:24:53;8.07;;;4.80;;
37237;SDS011;23129;49.662;8.448;2023-03-16T05:27:22;8.82;;;5.00;;
37237;SDS011;23129;49.662;8.448;2023-03-16T05:29:50;8.90;;;5.85;;
37237;SDS011;23129;49.662;8.448;2023-03-16T05:32:19;11.60;;;5.22;;
37237;SDS011;23129;49.662;8.448;2023-03-16T05:34:47;20.15;;;6.35;;
37237;SDS011;23129;49.662;8.448;2023-03-16T05:37:19;10.50;;;6.30;;
37237;SDS011;23129;49.662;8.448;2023-03-16T05:39:49;11.88;;;6.32;;
37237;SDS011;23129;49.662;8.448;2023-03-16T05:42:19;8.57;;;5.82;;
37237;SDS011;23129;49.662;8.448;2023-03-16T05:44:53;13.38;;;6.90;;
37237;SDS011;23129;49.662;8.448;2023-03-16T05:47:31;9.73;;;5.93;;
37237;SDS011;23129;49.662;8.448;2023-03-16T05:50:04;10.55;;;6.53;;
37237;SDS011;23129;49.662;8.448;2023-03-16T05:52:39;8.80;;;6.32;;
37237;SDS011;23129;49.662;8.448;2023-03-16T05:55:15;7.63;;;5.53;;
37237;SDS011;23129;49.662;8.448;2023-03-16T05:57:51;11.10;;;5.82;;
37237;SDS011;23129;49.662;8.448;2023-03-16T06:00:19;7.78;;;5.65;;
37237;SDS011;23129;49.662;8.448;2023-03-16T06:03:01;10.50;;;5.93;;
37237;SDS011;23129;49.662;8.448;2023-03-16T06:05:33;12.00;;;6.15;;
37237;SDS011;23129;49.662;8.448;2023-03-16T06:08:02;11.00;;;6.40;;
37237;SDS011;23129;49.662;8.448;2023-03-16T06:10:31;13.85;;;7.00;;
37237;SDS011;23129;49.662;8.448;2023-03-16T06:13:01;10.05;;;6.35;;
37237;SDS011;23129;49.662;8.448;2023-03-16T06:15:30;14.52;;;7.80;;
37237;SDS011;23129;49.662;8.448;2023-03-16T06:18:01;12.60;;;6.45;;
37237;SDS011;23129;49.662;8.448;2023-03-16T06:20:29;8.80;;;6.40;;
37237;SDS011;23129;49.662;8.448;2023-03-16T06:22:58;11.10;;;7.35;;
37237;SDS011;23129;49.662;8.448;2023-03-16T06:25:27;11.15;;;6.07;;
37237;SDS011;23129;49.662;8.448;2023-03-16T06:27:55;12.00;;;5.90;;
37237;SDS011;23129;49.662;8.448;2023-03-16T06:30:25;12.30;;;6.65;;
37237;SDS011;23129;49.662;8.448;2023-03-16T06:32:53;18.02;;;8.82;;
37237;SDS011;23129;49.662;8.448;2023-03-16T06:35:22;12.45;;;7.47;;
37237;SDS011;23129;49.662;8.448;2023-03-16T06:38:09;12.35;;;6.78;;
37237;SDS011;23129;49.662;8.448;2023-03-16T06:40:50;12.77;;;7.45;;
37237;SDS011;23129;49.662;8.448;2023-03-16T06:43:20;13.20;;;6.55;;
37237;SDS011;23129;49.662;8.448;2023-03-16T06:45:50;15.60;;;7.63;;
37237;SDS011;23129;49.662;8.448;2023-03-16T06:48:20;11.45;;;7.57;;
37237;SDS011;23129;49.662;8.448;2023-03-16T06:50:48;14.60;;;6.90;;
37237;SDS011;23129;49.662;8.448;2023-03-16T06:53:21;14.13;;;8.50;;
37237;SDS011;23129;49.662;8.448;2023-03-16T06:55:51;16.92;;;8.48;;
37237;SDS011;23129;49.662;8.448;2023-03-16T06:58:19;16.13;;;6.95;;
37237;SDS011;23129;49.662;8.448;2023-03-16T07:00:48;16.35;;;8.05;;
37237;SDS011;23129;49.662;8.448;2023-03-16T07:03:19;15.18;;;7.57;;
37237;SDS011;23129;49.662;8.448;2023-03-16T07:05:54;16.55;;;7.32;;
37237;SDS011;23129;49.662;8.448;2023-03-16T07:08:22;11.75;;;6.45;;
37237;SDS011;23129;49.662;8.448;2023-03-16T07:10:51;12.40;;;6.35;;
37237;SDS011;23129;49.662;8.448;2023-03-16T07:13:19;10.48;;;6.72;;
37237;SDS011;23129;49.662;8.448;2023-03-16T07:15:50;6.38;;;4.68;;
37237;SDS011;23129;49.662;8.448;2023-03-16T07:18:21;11.60;;;5.78;;
37237;SDS011;23129;49.662;8.448;2023-03-16T07:20:52;13.07;;;7.15;;
37237;SDS011;23129;49.662;8.448;2023-03-16T07:23:24;10.95;;;6.55;;
37237;SDS011;23129;49.662;8.448;2023-03-16T07:26:00;11.98;;;6.15;;
37237;SDS011;23129;49.662;8.448;2023-03-16T07:28:31;12.25;;;5.72;;
37237;SDS011;23129;49.662;8.448;2023-03-16T07:31:02;9.65;;;5.80;;
37237;SDS011;23129;49.662;8.448;2023-03-16T07:33:36;10.32;;;6.57;;
37237;SDS011;23129;49.662;8.448;2023-03-16T07:36:08;14.80;;;7.63;;
37237;SDS011;23129;49.662;8.448;2023-03-16T07:38:43;8.32;;;5.32;;
37237;SDS011;23129;49.662;8.448;2023-03-16T07:41:12;11.05;;;6.82;;
37237;SDS011;23129;49.662;8.448;2023-03-16T07:43:41;10.55;;;6.05;;
37237;SDS011;23129;49.662;8.448;2023-03-16T07:46:14;7.22;;;5.32;;
37237;SDS011;23129;49.662;8.448;2023-03-16T07:48:42;8.30;;;4.95;;
37237;SDS011;23129;49.662;8.448;2023-03-16T07:51:12;10.70;;;6.43;;
37237;SDS011;23129;49.662;8.448;2023-03-16T07:53:45;13.57;;;6.40;;
37237;SDS011;23129;49.662;8.448;2023-03-16T07:56:22;7.10;;;5.35;;
37237;SDS011;23129;49.662;8.448;2023-03-16T07:58:58;9.00;;;6.07;;
37237;SDS011;23129;49.662;8.448;2023-03-16T08:01:31;7.28;;;6.20;;
37237;SDS011;23129;49.662;8.448;2023-03-16T08:04:00;7.95;;;6.28;;
37237;SDS011;23129;49.662;8.448;2023-03-16T08:06:29;8.43;;;5.20;;
37237;SDS011;23129;49.662;8.448;2023-03-16T08:08:59;6.90;;;5.28;;
37237;SDS011;23129;49.662;8.448;2023-03-16T08:11:32;8.73;;;4.75;;
37237;SDS011;23129;49.662;8.448;2023-03-16T08:14:02;7.75;;;5.72;;
37237;SDS011;23129;49.662;8.448;2023-03-16T08:16:53;7.38;;;5.57;;
37237;SDS011;23129;49.662;8.448;2023-03-16T08:19:23;10.00;;;6.22;;
37237;SDS011;23129;49.662;8.448;2023-03-16T08:21:53;9.02;;;6.28;;
37237;SDS011;23129;49.662;8.448;2023-03-16T08:24:33;9.27;;;5.22;;
37237;SDS011;23129;49.662;8.448;2023-03-16T08:27:04;13.65;;;7.68;;
37237;SDS011;23129;49.662;8.448;2023-03-16T08:29:34;8.73;;;5.75;;
37237;SDS011;23129;49.662;8.448;2023-03-16T08:32:06;10.88;;;5.78;;
37237;SDS011;23129;49.662;8.448;2023-03-16T08:34:40;9.35;;;6.30;;
37237;SDS011;23129;49.662;8.448;2023-03-16T08:37:12;12.10;;;6.97;;
37237;SDS011;23129;49.662;8.448;2023-03-16T08:39:43;12.70;;;6.85;;
37237;SDS011;23129;49.662;8.448;2023-03-16T08:42:14;14.73;;;7.75;;
37237;SDS011;23129;49.662;8.448;2023-03-16T08:44:49;12.55;;;7.05;;
37237;SDS011;23129;49.662;8.448;2023-03-16T08:47:21;11.95;;;7.78;;
37237;SDS011;23129;49.662;8.448;2023-03-16T08:49:52;14.90;;;8.75;;
37237;SDS011;23129;49.662;8.448;2023-03-16T08:52:20;15.63;;;9.25;;
37237;SDS011;23129;49.662;8.448;2023-03-16T08:54:49;16.63;;;8.55;;
37237;SDS011;23129;49.662;8.448;2023-03-16T08:57:29;14.75;;;7.55;;
37237;SDS011;23129;49.662;8.448;2023-03-16T08:59:58;10.32;;;6.55;;
37237;SDS011;23129;49.662;8.448;2023-03-16T09:02:32;14.32;;;7.45;;
37237;SDS011;23129;49.662;8.448;2023-03-16T09:05:03;14.07;;;8.35;;
37237;SDS011;23129;49.662;8.448;2023-03-16T09:07:34;11.93;;;7.60;;
37237;SDS011;23129;49.662;8.448;2023-03-16T09:10:03;17.50;;;7.82;;
37237;SDS011;23129;49.662;8.448;2023-03-16T09:12:34;13.65;;;8.00;;
37237;SDS011;23129;49.662;8.448;2023-03-16T09:15:03;13.50;;;6.95;;
37237;SDS011;23129;49.662;8.448;2023-03-16T09:17:35;13.18;;;7.07;;
37237;SDS011;23129;49.662;8.448;2023-03-16T09:20:04;10.52;;;7.22;;
37237;SDS011;23129;49.662;8.448;2023-03-16T09:22:51;11.63;;;6.63;;
37237;SDS011;23129;49.662;8.448;2023-03-16T09:25:20;10.82;;;7.80;;
37237;SDS011;23129;49.662;8.448;2023-03-16T09:27:50;11.70;;;7.13;;
37237;SDS011;23129;49.662;8.448;2023-03-16T09:30:19;9.15;;;6.65;;
37237;SDS011;23129;49.662;8.448;2023-03-16T09:32:49;13.05;;;7.38;;
37237;SDS011;23129;49.662;8.448;2023-03-16T09:35:17;10.35;;;6.65;;
37237;SDS011;23129;49.662;8.448;2023-03-16T09:37:45;15.32;;;6.25;;
37237;SDS011;23129;49.662;8.448;2023-03-16T09:40:31;8.00;;;5.38;;
37237;SDS011;23129;49.662;8.448;2023-03-16T09:43:08;8.68;;;5.72;;
37237;SDS011;23129;49.662;8.448;2023-03-16T09:46:01;11.85;;;6.70;;
37237;SDS011;23129;49.662;8.448;2023-03-16T09:48:37;12.13;;;5.80;;
37237;SDS011;23129;49.662;8.448;2023-03-16T09:51:11;6.97;;;5.18;;
37237;SDS011;23129;49.662;8.448;2023-03-16T09:53:47;7.60;;;4.70;;
37237;SDS011;23129;49.662;8.448;2023-03-16T09:56:19;10.20;;;4.82;;
37237;SDS011;23129;49.662;8.448;2023-03-16T09:58:56;10.23;;;5.38;;
37237;SDS011;23129;49.662;8.448;2023-03-16T10:01:26;6.32;;;4.28;;
37237;SDS011;23129;49.662;8.448;2023-03-16T10:04:09;8.50;;;4.22;;
37237;SDS011;23129;49.662;8.448;2023-03-16T10:06:47;6.10;;;3.28;;
37237;SDS011;23129;49.662;8.448;2023-03-16T10:09:29;3.55;;;3.03;;
37237;SDS011;23129;49.662;8.448;2023-03-16T10:12:03;6.80;;;4.22;;
37237;SDS011;23129;49.662;8.448;2023-03-16T10:14:37;3.78;;;3.15;;
37237;SDS011;23129;49.662;8.448;2023-03-16T10:17:14;4.50;;;3.55;;
37237;SDS011;23129;49.662;8.448;2023-03-16T10:19:48;3.33;;;3.03;;
37237;SDS011;23129;49.662;8.448;2023-03-16T10:22:20;4.25;;;2.78;;
37237;SDS011;23129;49.662;8.448;2023-03-16T10:24:54;4.20;;;2.83;;
37237;SDS011;23129;49.662;8.448;2023-03-16T10:27:31;5.90;;;3.13;;
37237;SDS011;23129;49.662;8.448;2023-03-16T10:30:03;3.72;;;2.63;;
37237;SDS011;23129;49.662;8.448;2023-03-16T10:32:45;3.85;;;2.67;;
37237;SDS011;23129;49.662;8.448;2023-03-16T10:35:19;3.70;;;2.33;;
37237;SDS011;23129;49.662;8.448;2023-03-16T10:38:02;3.58;;;2.50;;
37237;SDS011;23129;49.662;8.448;2023-03-16T10:40:34;6.22;;;2.88;;
37237;SDS011;23129;49.662;8.448;2023-03-16T10:43:06;4.20;;;2.28;;
37237;SDS011;23129;49.662;8.448;2023-03-16T10:45:41;3.10;;;2.10;;
37237;SDS011;23129;49.662;8.448;2023-03-16T10:48:11;7.20;;;2.75;;
37237;SDS011;23129;49.662;8.448;2023-03-16T10:50:47;5.32;;;3.35;;
37237;SDS011;23129;49.662;8.448;2023-03-16T10:53:18;6.13;;;2.67;;
37237;SDS011;23129;49.662;8.448;2023-03-16T10:55:55;3.63;;;2.55;;
37237;SDS011;23129;49.662;8.448;2023-03-16T10:58:28;3.43;;;3.13;;
37237;SDS011;23129;49.662;8.448;2023-03-16T11:01:01;4.45;;;2.78;;
37237;SDS011;23129;49.662;8.448;2023-03-16T11:03:37;5.07;;;2.85;;
37237;SDS011;23129;49.662;8.448;2023-03-16T11:06:16;4.35;;;2.67;;
37237;SDS011;23129;49.662;8.448;2023-03-16T11:08:50;3.80;;;2.28;;
37237;SDS011;23129;49.662;8.448;2023-03-16T11:11:22;7.10;;;2.80;;
37237;SDS011;23129;49.662;8.448;2023-03-16T11:13:55;7.90;;;2.93;;
37237;SDS011;23129;49.662;8.448;2023-03-16T11:16:27;3.00;;;2.78;;
37237;SDS011;23129;49.662;8.448;2023-03-16T11:19:01;3.22;;;2.67;;
37237;SDS011;23129;49.662;8.448;2023-03-16T11:21:42;5.55;;;2.72;;
37237;SDS011;23129;49.662;8.448;2023-03-16T11:24:22;3.95;;;2.50;;
37237;SDS011;23129;49.662;8.448;2023-03-16T11:26:56;4.22;;;2.70;;
37237;SDS011;23129;49.662;8.448;2023-03-16T11:29:31;9.55;;;2.85;;
37237;SDS011;23129;49.662;8.448;2023-03-16T11:32:13;3.20;;;2.35;;
37237;SDS011;23129;49.662;8.448;2023-03-16T11:34:46;13.80;;;2.72;;
37237;SDS011;23129;49.662;8.448;2023-03-16T11:37:19;3.00;;;2.20;;
37237;SDS011;23129;49.662;8.448;2023-03-16T11:40:09;5.30;;;2.58;;
37237;SDS011;23129;49.662;8.448;2023-03-16T11:42:56;2.30;;;2.03;;
37237;SDS011;23129;49.662;8.448;2023-03-16T11:45:43;2.22;;;2.10;;
37237;SDS011;23129;49.662;8.448;2023-03-16T11:48:23;3.58;;;2.88;;
37237;SDS011;23129;49.662;8.448;2023-03-16T11:51:03;4.72;;;2.85;;
37237;SDS011;23129;49.662;8.448;2023-03-16T11:53:43;2.65;;;2.45;;
37237;SDS011;23129;49.662;8.448;2023-03-16T11:56:22;5.65;;;2.65;;
37237;SDS011;23129;49.662;8.448;2023-03-16T11:59:17;5.88;;;2.40;;
37237;SDS011;23129;49.662;8.448;2023-03-16T12:02:05;5.45;;;2.55;;
37237;SDS011;23129;49.662;8.448;2023-03-16T12:05:03;2.45;;;1.92;;
37237;SDS011;23129;49.662;8.448;2023-03-16T12:08:17;5.32;;;2.35;;
37237;SDS011;23129;49.662;8.448;2023-03-16T12:11:10;3.65;;;1.80;;
37237;SDS011;23129;49.662;8.448;2023-03-16T12:13:50;2.05;;;1.95;;
37237;SDS011;23129;49.662;8.448;2023-03-16T12:16:32;3.45;;;1.95;;
37237;SDS011;23129;49.662;8.448;2023-03-16T12:19:16;2.72;;;2.22;;
37237;SDS011;23129;49.662;8.448;2023-03-16T12:24:28;3.40;;;2.75;;
37237;SDS011;23129;49.662;8.448;2023-03-16T12:27:08;3.08;;;2.33;;
37237;SDS011;23129;49.662;8.448;2023-03-16T12:29:45;2.83;;;2.03;;
37237;SDS011;23129;49.662;8.448;2023-03-16T12:32:29;2.33;;;1.92;;
37237;SDS011;23129;49.662;8.448;2023-03-16T12:35:15;3.53;;;2.13;;
37237;SDS011;23129;49.662;8.448;2023-03-16T12:38:10;1.90;;;1.80;;
37237;SDS011;23129;49.662;8.448;2023-03-16T12:40:54;5.25;;;1.48;;
37237;SDS011;23129;49.662;8.448;2023-03-16T12:43:43;3.42;;;1.95;;
37237;SDS011;23129;49.662;8.448;2023-03-16T12:46:25;3.10;;;2.30;;
37237;SDS011;23129;49.662;8.448;2023-03-16T12:49:03;3.33;;;2.58;;
37237;SDS011;23129;49.662;8.448;2023-03-16T12:51:33;3.15;;;2.13;;
37237;SDS011;23129;49.662;8.448;2023-03-16T12:54:03;2.75;;;2.42;;
37237;SDS011;23129;49.662;8.448;2023-03-16T12:56:33;2.78;;;2.15;;
37237;SDS011;23129;49.662;8.448;2023-03-16T12:59:16;2.13;;;1.77;;
37237;SDS011;23129;49.662;8.448;2023-03-16T13:01:48;2.72;;;2.08;;
37237;SDS011;23129;49.662;8.448;2023-03-16T13:04:20;3.85;;;2.08;;
37237;SDS011;23129;49.662;8.448;2023-03-16T13:07:00;2.47;;;1.88;;
37237;SDS011;23129;49.662;8.448;2023-03-16T13:09:34;2.33;;;1.77;;
37237;SDS011;23129;49.662;8.448;2023-03-16T13:12:19;3.28;;;1.77;;
37237;SDS011;23129;49.662;8.448;2023-03-16T13:14:52;2.80;;;1.98;;
37237;SDS011;23129;49.662;8.448;2023-03-16T13:17:23;2.58;;;1.45;;
37237;SDS011;23129;49.662;8.448;2023-03-16T13:23:07;2.85;;;1.60;;
37237;SDS011;23129;49.662;8.448;2023-03-16T13:25:57;3.08;;;1.85;;
37237;SDS011;23129;49.662;8.448;2023-03-16T13:28:38;7.32;;;2.22;;
37237;SDS011;23129;49.662;8.448;2023-03-16T13:31:19;3.72;;;2.22;;
37237;SDS011;23129;49.662;8.448;2023-03-16T13:33:54;4.45;;;2.10;;
37237;SDS011;23129;49.662;8.448;2023-03-16T13:36:25;4.22;;;1.90;;
37237;SDS011;23129;49.662;8.448;2023-03-16T13:38:56;4.82;;;2.50;;
37237;SDS011;23129;49.662;8.448;2023-03-16T13:41:33;2.30;;;2.05;;
37237;SDS011;23129;49.662;8.448;2023-03-16T13:44:02;3.72;;;1.98;;
37237;SDS011;23129;49.662;8.448;2023-03-16T13:46:32;2.45;;;1.90;;
37237;SDS011;23129;49.662;8.448;2023-03-16T13:49:01;6.55;;;2.08;;
37237;SDS011;23129;49.662;8.448;2023-03-16T13:51:32;4.03;;;2.08;;
37237;SDS011;23129;49.662;8.448;2023-03-16T13:54:03;5.90;;;2.38;;
37237;SDS011;23129;49.662;8.448;2023-03-16T13:56:43;4.13;;;2.10;;
37237;SDS011;23129;49.662;8.448;2023-03-16T13:59:12;6.25;;;1.85;;
37237;SDS011;23129;49.662;8.448;2023-03-16T14:01:43;2.10;;;1.90;;
37237;SDS011;23129;49.662;8.448;2023-03-16T14:04:14;6.55;;;1.60;;
37237;SDS011;23129;49.662;8.448;2023-03-16T14:06:52;3.60;;;1.90;;
37237;SDS011;23129;49.662;8.448;2023-03-16T14:09:24;2.67;;;1.98;;
37237;SDS011;23129;49.662;8.448;2023-03-16T14:11:57;4.85;;;2.15;;
37237;SDS011;23129;49.662;8.448;2023-03-16T14:14:27;4.32;;;1.83;;
37237;SDS011;23129;49.662;8.448;2023-03-16T14:17:02;2.40;;;1.55;;
37237;SDS011;23129;49.662;8.448;2023-03-16T14:19:39;2.20;;;1.55;;
37237;SDS011;23129;49.662;8.448;2023-03-16T14:22:15;2.38;;;1.90;;
37237;SDS011;23129;49.662;8.448;2023-03-16T14:24:50;4.75;;;1.80;;
37237;SDS011;23129;49.662;8.448;2023-03-16T14:27:24;3.53;;;2.10;;
37237;SDS011;23129;49.662;8.448;2023-03-16T14:29:57;3.47;;;2.43;;
37237;SDS011;23129;49.662;8.448;2023-03-16T14:32:29;3.80;;;1.92;;
37237;SDS011;23129;49.662;8.448;2023-03-16T14:35:02;3.67;;;2.35;;
37237;SDS011;23129;49.662;8.448;2023-03-16T14:37:40;3.45;;;2.25;;
37237;SDS011;23129;49.662;8.448;2023-03-16T14:40:20;3.85;;;2.10;;
37237;SDS011;23129;49.662;8.448;2023-03-16T14:42:53;1.65;;;1.55;;
37237;SDS011;23129;49.662;8.448;2023-03-16T14:45:26;2.63;;;1.70;;
37237;SDS011;23129;49.662;8.448;2023-03-16T14:48:02;1.63;;;1.33;;
37237;SDS011;23129;49.662;8.448;2023-03-16T14:50:34;5.97;;;1.65;;
37237;SDS011;23129;49.662;8.448;2023-03-16T14:53:02;2.63;;;1.73;;
37237;SDS011;23129;49.662;8.448;2023-03-16T14:55:32;3.30;;;1.52;;
37237;SDS011;23129;49.662;8.448;2023-03-16T14:58:01;2.08;;;1.60;;
37237;SDS011;23129;49.662;8.448;2023-03-16T15:00:30;3.20;;;1.55;;
37237;SDS011;23129;49.662;8.448;2023-03-16T15:03:17;2.00;;;1.27;;
37237;SDS011;23129;49.662;8.448;2023-03-16T15:05:48;5.43;;;1.70;;
37237;SDS011;23129;49.662;8.448;2023-03-16T15:08:19;4.53;;;1.60;;
37237;SDS011;23129;49.662;8.448;2023-03-16T15:10:53;1.90;;;1.42;;
37237;SDS011;23129;49.662;8.448;2023-03-16T15:13:24;3.03;;;1.88;;
37237;SDS011;23129;49.662;8.448;2023-03-16T15:16:18;3.20;;;1.55;;
37237;SDS011;23129;49.662;8.448;2023-03-16T15:18:49;1.73;;;1.50;;
37237;SDS011;23129;49.662;8.448;2023-03-16T15:21:18;2.45;;;1.50;;
37237;SDS011;23129;49.662;8.448;2023-03-16T15:23:52;2.20;;;1.60;;
37237;SDS011;23129;49.662;8.448;2023-03-16T15:26:24;6.85;;;1.80;;
37237;SDS011;23129;49.662;8.448;2023-03-16T15:28:55;3.58;;;1.60;;